Hauptseite
METAR-TAF:

METAR-TAF

Flughäfen :

Aurillac, Frankreich

Flughafen Aurillac

Breite: 44-53N, Länge: 002-25E, Höhe: 639 m

Beobachtung

Neuester Wetterbericht von vor 27 Minuten, um 09:30 UTC
Wind 9 kt aus Süd/Südost, variierte zwischen Ost/Südost und Süd
Temperatur 20°C
Luftfeuchtigkeit 46%
Luftdruck 1027 hPa
Sichtweite 10 km oder mehr
keine Wolken unter 1500 m und keine Kumulonimbus oder Gewitterwolken

METAR: LFLW 190930Z AUTO 15009KT 120V180 CAVOK 20/08 Q1027 NOSIG

Zeit: 11:57 (09:57 UTC)

Prognose

Neuester Wetterbericht von vor 1 Stunde und 57 Minuten, um 08:00 UTC
Gültige Prognose vom 19 um 09 UTC bis 19 um 18 UTC
Wind 6 kt aus Ost
Sichtweite 10 km oder mehr
keine Wolken unter 1500 m und keine Kumulonimbus oder Gewitterwolken

TAF: LFLW 190800Z 1909/1918 10006KT CAVOK

Wetterbeobachtungen und Prognosen von mehr als 4000 Flughäfen (METAR und TAF Bericht).

Die verfügbaren Stationen werden durch gelbe und rote Markierungen auf der Karte dargestellt.

Führen Sie die Maus auf sie, um den Namen der Station zu sehen.

Darauf klicken, um die Beobachtung von Wetterbeobachtungen und Prognosen zu sehen.

Um die Karte zu ändern : klicken Sie auf den grünen Tasten mit einem schwarzen Kreuz Zum Vergrößern, auf den grünen Button mit einem Gedankenstrich zu verkleinern, oder auf die grünen Pfeile für benachbarte Karten.


METAR-TAF: